sensor_id;sensor_type;location;lat;lon;timestamp;P1;durP1;ratioP1;P2;durP2;ratioP2
68858;SDS011;55864;49.238;8.092;2022-07-06T00:00:10;6.65;;;2.60;;
68858;SDS011;55864;49.238;8.092;2022-07-06T00:02:11;6.80;;;2.38;;
68858;SDS011;55864;49.238;8.092;2022-07-06T00:04:13;8.63;;;2.45;;
68858;SDS011;55864;49.238;8.092;2022-07-06T00:06:13;10.53;;;2.73;;
68858;SDS011;55864;49.238;8.092;2022-07-06T00:08:14;7.75;;;2.80;;
68858;SDS011;55864;49.238;8.092;2022-07-06T00:10:14;7.25;;;2.42;;
68858;SDS011;55864;49.238;8.092;2022-07-06T00:12:15;6.38;;;2.55;;
68858;SDS011;55864;49.238;8.092;2022-07-06T00:14:16;7.65;;;2.60;;
68858;SDS011;55864;49.238;8.092;2022-07-06T00:16:16;9.73;;;2.63;;
68858;SDS011;55864;49.238;8.092;2022-07-06T00:18:17;6.40;;;2.70;;
68858;SDS011;55864;49.238;8.092;2022-07-06T00:20:19;5.95;;;2.58;;
68858;SDS011;55864;49.238;8.092;2022-07-06T00:22:20;7.57;;;2.50;;
68858;SDS011;55864;49.238;8.092;2022-07-06T00:24:21;6.13;;;2.40;;
68858;SDS011;55864;49.238;8.092;2022-07-06T00:26:21;6.60;;;2.53;;
68858;SDS011;55864;49.238;8.092;2022-07-06T00:28:22;9.43;;;2.70;;
68858;SDS011;55864;49.238;8.092;2022-07-06T00:30:22;8.10;;;2.50;;
68858;SDS011;55864;49.238;8.092;2022-07-06T00:32:23;8.77;;;2.60;;
68858;SDS011;55864;49.238;8.092;2022-07-06T00:34:24;7.43;;;2.60;;
68858;SDS011;55864;49.238;8.092;2022-07-06T00:36:25;6.20;;;2.70;;
68858;SDS011;55864;49.238;8.092;2022-07-06T00:38:26;7.78;;;2.67;;
68858;SDS011;55864;49.238;8.092;2022-07-06T00:40:27;7.07;;;2.60;;
68858;SDS011;55864;49.238;8.092;2022-07-06T00:42:27;7.30;;;2.67;;
68858;SDS011;55864;49.238;8.092;2022-07-06T00:44:28;8.85;;;2.60;;
68858;SDS011;55864;49.238;8.092;2022-07-06T00:46:30;9.05;;;2.58;;
68858;SDS011;55864;49.238;8.092;2022-07-06T00:50:32;6.85;;;2.90;;
68858;SDS011;55864;49.238;8.092;2022-07-06T00:52:35;8.10;;;2.92;;
68858;SDS011;55864;49.238;8.092;2022-07-06T00:54:35;9.15;;;2.75;;
68858;SDS011;55864;49.238;8.092;2022-07-06T00:56:36;6.13;;;2.90;;
68858;SDS011;55864;49.238;8.092;2022-07-06T00:58:37;6.53;;;2.53;;
68858;SDS011;55864;49.238;8.092;2022-07-06T01:00:38;5.82;;;2.60;;
68858;SDS011;55864;49.238;8.092;2022-07-06T01:02:39;6.90;;;2.88;;
68858;SDS011;55864;49.238;8.092;2022-07-06T01:04:40;9.30;;;3.28;;
68858;SDS011;55864;49.238;8.092;2022-07-06T01:06:41;6.70;;;2.50;;
68858;SDS011;55864;49.238;8.092;2022-07-06T01:08:43;8.80;;;3.00;;
68858;SDS011;55864;49.238;8.092;2022-07-06T01:10:43;6.38;;;2.65;;
68858;SDS011;55864;49.238;8.092;2022-07-06T01:12:45;5.95;;;2.70;;
68858;SDS011;55864;49.238;8.092;2022-07-06T01:16:48;7.47;;;2.72;;
68858;SDS011;55864;49.238;8.092;2022-07-06T01:18:49;7.50;;;2.90;;
68858;SDS011;55864;49.238;8.092;2022-07-06T01:20:51;7.43;;;2.92;;
68858;SDS011;55864;49.238;8.092;2022-07-06T01:22:52;6.45;;;3.00;;
68858;SDS011;55864;49.238;8.092;2022-07-06T01:24:54;7.93;;;2.90;;
68858;SDS011;55864;49.238;8.092;2022-07-06T01:26:54;7.13;;;3.00;;
68858;SDS011;55864;49.238;8.092;2022-07-06T01:28:55;10.88;;;2.80;;
68858;SDS011;55864;49.238;8.092;2022-07-06T01:30:56;6.05;;;2.50;;
68858;SDS011;55864;49.238;8.092;2022-07-06T01:32:56;7.00;;;2.80;;
68858;SDS011;55864;49.238;8.092;2022-07-06T01:34:57;5.95;;;2.65;;
68858;SDS011;55864;49.238;8.092;2022-07-06T01:36:59;6.57;;;2.50;;
68858;SDS011;55864;49.238;8.092;2022-07-06T01:38:59;7.13;;;2.50;;
68858;SDS011;55864;49.238;8.092;2022-07-06T01:41:04;7.07;;;2.50;;
68858;SDS011;55864;49.238;8.092;2022-07-06T01:43:05;4.60;;;2.15;;
68858;SDS011;55864;49.238;8.092;2022-07-06T01:45:07;6.93;;;3.05;;
68858;SDS011;55864;49.238;8.092;2022-07-06T01:47:10;6.35;;;2.35;;
68858;SDS011;55864;49.238;8.092;2022-07-06T01:49:11;6.90;;;2.63;;
68858;SDS011;55864;49.238;8.092;2022-07-06T01:51:12;6.43;;;2.65;;
68858;SDS011;55864;49.238;8.092;2022-07-06T01:53:14;5.80;;;2.63;;
68858;SDS011;55864;49.238;8.092;2022-07-06T01:55:15;8.60;;;2.45;;
68858;SDS011;55864;49.238;8.092;2022-07-06T01:57:16;6.63;;;2.67;;
68858;SDS011;55864;49.238;8.092;2022-07-06T01:59:17;5.18;;;2.78;;
68858;SDS011;55864;49.238;8.092;2022-07-06T02:01:18;6.30;;;2.90;;
68858;SDS011;55864;49.238;8.092;2022-07-06T02:03:19;6.78;;;2.78;;
68858;SDS011;55864;49.238;8.092;2022-07-06T02:05:20;8.95;;;2.92;;
68858;SDS011;55864;49.238;8.092;2022-07-06T02:07:21;8.57;;;2.53;;
68858;SDS011;55864;49.238;8.092;2022-07-06T02:09:23;6.82;;;2.50;;
68858;SDS011;55864;49.238;8.092;2022-07-06T02:11:23;7.68;;;2.70;;
68858;SDS011;55864;49.238;8.092;2022-07-06T02:13:24;9.55;;;2.75;;
68858;SDS011;55864;49.238;8.092;2022-07-06T02:15:25;6.10;;;2.65;;
68858;SDS011;55864;49.238;8.092;2022-07-06T02:17:26;6.15;;;2.65;;
68858;SDS011;55864;49.238;8.092;2022-07-06T02:19:26;5.95;;;2.60;;
68858;SDS011;55864;49.238;8.092;2022-07-06T02:21:27;7.25;;;2.45;;
68858;SDS011;55864;49.238;8.092;2022-07-06T02:23:28;6.65;;;2.70;;
68858;SDS011;55864;49.238;8.092;2022-07-06T02:25:30;6.95;;;2.60;;
68858;SDS011;55864;49.238;8.092;2022-07-06T02:27:30;6.45;;;2.53;;
68858;SDS011;55864;49.238;8.092;2022-07-06T02:29:32;7.28;;;2.60;;
68858;SDS011;55864;49.238;8.092;2022-07-06T02:31:33;6.35;;;2.40;;
68858;SDS011;55864;49.238;8.092;2022-07-06T02:33:33;6.35;;;2.30;;
68858;SDS011;55864;49.238;8.092;2022-07-06T02:35:34;7.10;;;2.47;;
68858;SDS011;55864;49.238;8.092;2022-07-06T02:37:35;7.57;;;2.33;;
68858;SDS011;55864;49.238;8.092;2022-07-06T02:39:35;6.40;;;2.40;;
68858;SDS011;55864;49.238;8.092;2022-07-06T02:41:38;6.15;;;2.50;;
68858;SDS011;55864;49.238;8.092;2022-07-06T02:43:39;8.45;;;2.42;;
68858;SDS011;55864;49.238;8.092;2022-07-06T02:45:40;7.18;;;2.40;;
68858;SDS011;55864;49.238;8.092;2022-07-06T02:47:40;7.28;;;2.67;;
68858;SDS011;55864;49.238;8.092;2022-07-06T02:49:42;8.57;;;2.50;;
68858;SDS011;55864;49.238;8.092;2022-07-06T02:51:42;5.43;;;2.50;;
68858;SDS011;55864;49.238;8.092;2022-07-06T02:53:43;8.48;;;2.55;;
68858;SDS011;55864;49.238;8.092;2022-07-06T02:55:44;6.75;;;2.58;;
68858;SDS011;55864;49.238;8.092;2022-07-06T02:57:46;7.28;;;2.28;;
68858;SDS011;55864;49.238;8.092;2022-07-06T02:59:47;6.95;;;2.55;;
68858;SDS011;55864;49.238;8.092;2022-07-06T03:01:48;6.57;;;2.40;;
68858;SDS011;55864;49.238;8.092;2022-07-06T03:03:48;8.48;;;2.50;;
68858;SDS011;55864;49.238;8.092;2022-07-06T03:05:49;6.90;;;2.47;;
68858;SDS011;55864;49.238;8.092;2022-07-06T03:07:52;8.93;;;2.40;;
68858;SDS011;55864;49.238;8.092;2022-07-06T03:09:53;8.55;;;2.63;;
68858;SDS011;55864;49.238;8.092;2022-07-06T03:11:54;8.48;;;2.53;;
68858;SDS011;55864;49.238;8.092;2022-07-06T03:13:56;6.70;;;2.45;;
68858;SDS011;55864;49.238;8.092;2022-07-06T03:15:57;5.40;;;2.25;;
68858;SDS011;55864;49.238;8.092;2022-07-06T03:17:58;9.13;;;2.42;;
68858;SDS011;55864;49.238;8.092;2022-07-06T03:19:58;8.45;;;2.53;;
68858;SDS011;55864;49.238;8.092;2022-07-06T03:21:59;9.68;;;2.30;;
68858;SDS011;55864;49.238;8.092;2022-07-06T03:24:00;8.15;;;2.38;;
68858;SDS011;55864;49.238;8.092;2022-07-06T03:26:01;6.82;;;2.33;;
68858;SDS011;55864;49.238;8.092;2022-07-06T03:28:03;7.70;;;2.42;;
68858;SDS011;55864;49.238;8.092;2022-07-06T03:30:06;5.00;;;2.25;;
68858;SDS011;55864;49.238;8.092;2022-07-06T03:32:08;6.82;;;2.35;;
68858;SDS011;55864;49.238;8.092;2022-07-06T03:34:10;6.80;;;2.38;;
68858;SDS011;55864;49.238;8.092;2022-07-06T03:36:10;8.68;;;2.38;;
68858;SDS011;55864;49.238;8.092;2022-07-06T03:38:11;5.25;;;2.17;;
68858;SDS011;55864;49.238;8.092;2022-07-06T03:40:14;7.40;;;2.53;;
68858;SDS011;55864;49.238;8.092;2022-07-06T03:42:15;6.25;;;2.28;;
68858;SDS011;55864;49.238;8.092;2022-07-06T03:44:15;9.30;;;2.58;;
68858;SDS011;55864;49.238;8.092;2022-07-06T03:46:17;8.07;;;2.72;;
68858;SDS011;55864;49.238;8.092;2022-07-06T03:48:18;5.57;;;2.47;;
68858;SDS011;55864;49.238;8.092;2022-07-06T03:50:19;5.07;;;2.22;;
68858;SDS011;55864;49.238;8.092;2022-07-06T03:52:20;7.68;;;2.53;;
68858;SDS011;55864;49.238;8.092;2022-07-06T03:54:25;5.25;;;2.17;;
68858;SDS011;55864;49.238;8.092;2022-07-06T03:56:30;5.53;;;2.33;;
68858;SDS011;55864;49.238;8.092;2022-07-06T03:58:39;8.25;;;2.30;;
68858;SDS011;55864;49.238;8.092;2022-07-06T04:00:40;5.43;;;2.30;;
68858;SDS011;55864;49.238;8.092;2022-07-06T04:02:48;5.80;;;2.47;;
68858;SDS011;55864;49.238;8.092;2022-07-06T04:04:54;5.93;;;2.20;;
68858;SDS011;55864;49.238;8.092;2022-07-06T04:06:55;7.25;;;2.53;;
68858;SDS011;55864;49.238;8.092;2022-07-06T04:08:56;6.25;;;2.20;;
68858;SDS011;55864;49.238;8.092;2022-07-06T04:10:56;7.68;;;2.30;;
68858;SDS011;55864;49.238;8.092;2022-07-06T04:12:57;6.15;;;2.53;;
68858;SDS011;55864;49.238;8.092;2022-07-06T04:14:58;7.57;;;2.42;;
68858;SDS011;55864;49.238;8.092;2022-07-06T04:16:59;6.85;;;2.00;;
68858;SDS011;55864;49.238;8.092;2022-07-06T04:19:01;6.30;;;2.40;;
68858;SDS011;55864;49.238;8.092;2022-07-06T04:21:02;7.20;;;2.20;;
68858;SDS011;55864;49.238;8.092;2022-07-06T04:23:05;9.52;;;2.70;;
68858;SDS011;55864;49.238;8.092;2022-07-06T04:25:06;7.00;;;2.40;;
68858;SDS011;55864;49.238;8.092;2022-07-06T04:27:07;19.67;;;3.10;;
68858;SDS011;55864;49.238;8.092;2022-07-06T04:29:08;12.63;;;2.67;;
68858;SDS011;55864;49.238;8.092;2022-07-06T04:31:09;6.00;;;2.40;;
68858;SDS011;55864;49.238;8.092;2022-07-06T04:33:10;8.30;;;2.42;;
68858;SDS011;55864;49.238;8.092;2022-07-06T04:35:14;9.65;;;2.47;;
68858;SDS011;55864;49.238;8.092;2022-07-06T04:39:16;10.13;;;2.63;;
68858;SDS011;55864;49.238;8.092;2022-07-06T04:41:17;7.07;;;2.33;;
68858;SDS011;55864;49.238;8.092;2022-07-06T04:43:18;12.23;;;2.50;;
68858;SDS011;55864;49.238;8.092;2022-07-06T04:45:18;8.70;;;2.40;;
68858;SDS011;55864;49.238;8.092;2022-07-06T04:47:19;6.55;;;2.35;;
68858;SDS011;55864;49.238;8.092;2022-07-06T04:49:21;7.47;;;2.33;;
68858;SDS011;55864;49.238;8.092;2022-07-06T04:51:23;6.53;;;2.40;;
68858;SDS011;55864;49.238;8.092;2022-07-06T04:53:23;9.40;;;2.38;;
68858;SDS011;55864;49.238;8.092;2022-07-06T04:55:24;7.13;;;2.33;;
68858;SDS011;55864;49.238;8.092;2022-07-06T04:57:25;6.32;;;2.40;;
68858;SDS011;55864;49.238;8.092;2022-07-06T04:59:27;7.43;;;2.40;;
68858;SDS011;55864;49.238;8.092;2022-07-06T05:01:28;8.50;;;2.30;;
68858;SDS011;55864;49.238;8.092;2022-07-06T05:03:29;7.97;;;2.22;;
68858;SDS011;55864;49.238;8.092;2022-07-06T05:05:29;11.25;;;2.33;;
68858;SDS011;55864;49.238;8.092;2022-07-06T05:07:32;15.05;;;2.40;;
68858;SDS011;55864;49.238;8.092;2022-07-06T05:09:33;10.32;;;2.53;;
68858;SDS011;55864;49.238;8.092;2022-07-06T05:11:34;17.42;;;2.85;;
68858;SDS011;55864;49.238;8.092;2022-07-06T05:13:35;11.50;;;2.70;;
68858;SDS011;55864;49.238;8.092;2022-07-06T05:15:35;8.65;;;2.33;;
68858;SDS011;55864;49.238;8.092;2022-07-06T05:17:36;7.07;;;2.55;;
68858;SDS011;55864;49.238;8.092;2022-07-06T05:19:38;7.32;;;2.42;;
68858;SDS011;55864;49.238;8.092;2022-07-06T05:21:38;10.55;;;2.53;;
68858;SDS011;55864;49.238;8.092;2022-07-06T05:23:42;8.75;;;2.40;;
68858;SDS011;55864;49.238;8.092;2022-07-06T05:25:43;6.60;;;2.25;;
68858;SDS011;55864;49.238;8.092;2022-07-06T05:27:44;7.10;;;2.45;;
68858;SDS011;55864;49.238;8.092;2022-07-06T05:29:44;10.35;;;2.33;;
68858;SDS011;55864;49.238;8.092;2022-07-06T05:31:46;10.23;;;2.33;;
68858;SDS011;55864;49.238;8.092;2022-07-06T05:33:47;10.85;;;2.45;;
68858;SDS011;55864;49.238;8.092;2022-07-06T05:35:47;8.98;;;2.35;;
68858;SDS011;55864;49.238;8.092;2022-07-06T05:37:48;13.65;;;2.58;;
68858;SDS011;55864;49.238;8.092;2022-07-06T05:39:51;10.55;;;2.42;;
68858;SDS011;55864;49.238;8.092;2022-07-06T05:41:51;7.38;;;2.20;;
68858;SDS011;55864;49.238;8.092;2022-07-06T05:43:53;6.57;;;2.20;;
68858;SDS011;55864;49.238;8.092;2022-07-06T05:45:54;8.65;;;2.58;;
68858;SDS011;55864;49.238;8.092;2022-07-06T05:47:56;7.47;;;2.17;;
68858;SDS011;55864;49.238;8.092;2022-07-06T05:49:57;9.15;;;2.60;;
68858;SDS011;55864;49.238;8.092;2022-07-06T05:51:58;12.98;;;2.28;;
68858;SDS011;55864;49.238;8.092;2022-07-06T05:53:58;7.57;;;2.28;;
68858;SDS011;55864;49.238;8.092;2022-07-06T05:56:01;9.73;;;2.20;;
68858;SDS011;55864;49.238;8.092;2022-07-06T05:58:04;12.10;;;2.70;;
68858;SDS011;55864;49.238;8.092;2022-07-06T06:00:07;7.47;;;2.10;;
68858;SDS011;55864;49.238;8.092;2022-07-06T06:02:16;10.07;;;2.20;;
68858;SDS011;55864;49.238;8.092;2022-07-06T06:04:17;7.70;;;2.00;;
68858;SDS011;55864;49.238;8.092;2022-07-06T06:06:18;14.43;;;2.22;;
68858;SDS011;55864;49.238;8.092;2022-07-06T06:08:19;5.72;;;1.98;;
68858;SDS011;55864;49.238;8.092;2022-07-06T06:10:20;5.32;;;1.73;;
68858;SDS011;55864;49.238;8.092;2022-07-06T06:12:25;8.68;;;2.47;;
68858;SDS011;55864;49.238;8.092;2022-07-06T06:14:25;8.73;;;2.10;;
68858;SDS011;55864;49.238;8.092;2022-07-06T06:16:26;7.57;;;2.15;;
68858;SDS011;55864;49.238;8.092;2022-07-06T06:18:26;8.38;;;2.25;;
68858;SDS011;55864;49.238;8.092;2022-07-06T06:20:27;8.98;;;2.30;;
68858;SDS011;55864;49.238;8.092;2022-07-06T06:22:28;5.93;;;2.15;;
68858;SDS011;55864;49.238;8.092;2022-07-06T06:24:28;7.25;;;2.90;;
68858;SDS011;55864;49.238;8.092;2022-07-06T06:26:29;6.18;;;2.28;;
68858;SDS011;55864;49.238;8.092;2022-07-06T06:28:31;10.85;;;2.80;;
68858;SDS011;55864;49.238;8.092;2022-07-06T06:30:31;9.70;;;2.25;;
68858;SDS011;55864;49.238;8.092;2022-07-06T06:32:32;6.30;;;2.10;;
68858;SDS011;55864;49.238;8.092;2022-07-06T06:34:33;7.82;;;2.20;;
68858;SDS011;55864;49.238;8.092;2022-07-06T06:36:33;8.80;;;2.50;;
68858;SDS011;55864;49.238;8.092;2022-07-06T06:38:34;6.20;;;2.20;;
68858;SDS011;55864;49.238;8.092;2022-07-06T06:40:34;7.57;;;2.15;;
68858;SDS011;55864;49.238;8.092;2022-07-06T06:42:35;8.13;;;2.28;;
68858;SDS011;55864;49.238;8.092;2022-07-06T06:44:41;11.35;;;2.30;;
68858;SDS011;55864;49.238;8.092;2022-07-06T06:46:41;6.05;;;2.00;;
68858;SDS011;55864;49.238;8.092;2022-07-06T06:48:42;10.63;;;2.60;;
68858;SDS011;55864;49.238;8.092;2022-07-06T06:50:42;13.60;;;2.67;;
68858;SDS011;55864;49.238;8.092;2022-07-06T06:52:43;6.43;;;2.30;;
68858;SDS011;55864;49.238;8.092;2022-07-06T06:54:44;7.35;;;2.45;;
68858;SDS011;55864;49.238;8.092;2022-07-06T06:56:44;6.53;;;2.22;;
68858;SDS011;55864;49.238;8.092;2022-07-06T06:58:45;5.53;;;2.10;;
68858;SDS011;55864;49.238;8.092;2022-07-06T07:00:47;7.47;;;2.30;;
68858;SDS011;55864;49.238;8.092;2022-07-06T07:02:47;7.03;;;2.42;;
68858;SDS011;55864;49.238;8.092;2022-07-06T07:04:48;5.40;;;2.35;;
68858;SDS011;55864;49.238;8.092;2022-07-06T07:06:49;6.68;;;2.15;;
68858;SDS011;55864;49.238;8.092;2022-07-06T07:08:49;8.15;;;1.90;;
68858;SDS011;55864;49.238;8.092;2022-07-06T07:10:50;7.13;;;2.30;;
68858;SDS011;55864;49.238;8.092;2022-07-06T07:12:51;6.85;;;2.17;;
68858;SDS011;55864;49.238;8.092;2022-07-06T07:14:52;7.05;;;2.28;;
68858;SDS011;55864;49.238;8.092;2022-07-06T07:16:54;6.28;;;1.77;;
68858;SDS011;55864;49.238;8.092;2022-07-06T07:18:54;7.93;;;2.40;;
68858;SDS011;55864;49.238;8.092;2022-07-06T07:20:55;15.27;;;2.50;;
68858;SDS011;55864;49.238;8.092;2022-07-06T07:22:55;10.13;;;2.20;;
68858;SDS011;55864;49.238;8.092;2022-07-06T07:24:56;6.45;;;2.03;;
68858;SDS011;55864;49.238;8.092;2022-07-06T07:26:57;7.10;;;2.10;;
68858;SDS011;55864;49.238;8.092;2022-07-06T07:28:57;8.00;;;1.98;;
68858;SDS011;55864;49.238;8.092;2022-07-06T07:30:58;6.63;;;2.08;;
68858;SDS011;55864;49.238;8.092;2022-07-06T07:33:00;7.50;;;2.20;;
68858;SDS011;55864;49.238;8.092;2022-07-06T07:35:00;7.93;;;2.40;;
68858;SDS011;55864;49.238;8.092;2022-07-06T07:37:01;5.72;;;2.00;;
68858;SDS011;55864;49.238;8.092;2022-07-06T07:39:02;6.32;;;2.17;;
68858;SDS011;55864;49.238;8.092;2022-07-06T07:41:02;7.68;;;2.38;;
68858;SDS011;55864;49.238;8.092;2022-07-06T07:43:03;8.52;;;2.42;;
68858;SDS011;55864;49.238;8.092;2022-07-06T07:45:04;9.98;;;2.17;;
68858;SDS011;55864;49.238;8.092;2022-07-06T07:47:05;13.85;;;2.40;;
68858;SDS011;55864;49.238;8.092;2022-07-06T07:49:07;10.77;;;2.20;;
68858;SDS011;55864;49.238;8.092;2022-07-06T07:51:09;8.15;;;2.10;;
68858;SDS011;55864;49.238;8.092;2022-07-06T07:53:09;6.07;;;2.00;;
68858;SDS011;55864;49.238;8.092;2022-07-06T07:55:10;12.73;;;2.40;;
68858;SDS011;55864;49.238;8.092;2022-07-06T07:57:11;7.07;;;2.38;;
68858;SDS011;55864;49.238;8.092;2022-07-06T07:59:11;6.00;;;2.30;;
68858;SDS011;55864;49.238;8.092;2022-07-06T08:01:13;5.53;;;2.13;;
68858;SDS011;55864;49.238;8.092;2022-07-06T08:03:13;6.95;;;2.00;;
68858;SDS011;55864;49.238;8.092;2022-07-06T08:05:15;7.13;;;2.30;;
68858;SDS011;55864;49.238;8.092;2022-07-06T08:07:16;6.88;;;2.20;;
68858;SDS011;55864;49.238;8.092;2022-07-06T08:09:16;9.27;;;2.60;;
68858;SDS011;55864;49.238;8.092;2022-07-06T08:11:17;8.13;;;2.08;;
68858;SDS011;55864;49.238;8.092;2022-07-06T08:13:18;5.60;;;2.00;;
68858;SDS011;55864;49.238;8.092;2022-07-06T08:15:18;6.30;;;2.38;;
68858;SDS011;55864;49.238;8.092;2022-07-06T08:17:19;5.55;;;1.95;;
68858;SDS011;55864;49.238;8.092;2022-07-06T08:19:19;8.15;;;1.92;;
68858;SDS011;55864;49.238;8.092;2022-07-06T08:21:21;7.90;;;2.40;;
68858;SDS011;55864;49.238;8.092;2022-07-06T08:23:22;7.10;;;1.98;;
68858;SDS011;55864;49.238;8.092;2022-07-06T08:25:22;9.95;;;2.05;;
68858;SDS011;55864;49.238;8.092;2022-07-06T08:27:23;8.32;;;2.10;;
68858;SDS011;55864;49.238;8.092;2022-07-06T08:29:23;7.38;;;2.28;;
68858;SDS011;55864;49.238;8.092;2022-07-06T08:31:24;9.35;;;2.33;;
68858;SDS011;55864;49.238;8.092;2022-07-06T08:33:24;9.18;;;2.30;;
68858;SDS011;55864;49.238;8.092;2022-07-06T08:35:25;7.88;;;1.90;;
68858;SDS011;55864;49.238;8.092;2022-07-06T08:37:27;8.40;;;2.05;;
68858;SDS011;55864;49.238;8.092;2022-07-06T08:39:28;7.38;;;2.35;;
68858;SDS011;55864;49.238;8.092;2022-07-06T08:41:28;5.65;;;1.95;;
68858;SDS011;55864;49.238;8.092;2022-07-06T08:43:30;15.13;;;2.30;;
68858;SDS011;55864;49.238;8.092;2022-07-06T08:45:31;11.52;;;2.15;;
68858;SDS011;55864;49.238;8.092;2022-07-06T08:47:35;5.70;;;2.10;;
68858;SDS011;55864;49.238;8.092;2022-07-06T08:49:36;7.75;;;2.20;;
68858;SDS011;55864;49.238;8.092;2022-07-06T08:51:37;6.35;;;1.90;;
68858;SDS011;55864;49.238;8.092;2022-07-06T08:53:39;26.20;;;3.60;;
68858;SDS011;55864;49.238;8.092;2022-07-06T08:57:41;8.98;;;2.10;;
68858;SDS011;55864;49.238;8.092;2022-07-06T08:59:45;11.68;;;2.13;;
68858;SDS011;55864;49.238;8.092;2022-07-06T09:01:46;10.63;;;2.20;;
68858;SDS011;55864;49.238;8.092;2022-07-06T09:03:47;15.23;;;2.78;;
68858;SDS011;55864;49.238;8.092;2022-07-06T09:07:51;7.40;;;1.95;;
68858;SDS011;55864;49.238;8.092;2022-07-06T09:09:53;6.97;;;2.00;;
68858;SDS011;55864;49.238;8.092;2022-07-06T09:11:55;5.07;;;1.90;;
68858;SDS011;55864;49.238;8.092;2022-07-06T09:13:55;7.50;;;1.90;;
68858;SDS011;55864;49.238;8.092;2022-07-06T09:16:06;6.40;;;1.77;;
68858;SDS011;55864;49.238;8.092;2022-07-06T09:18:09;8.88;;;1.90;;
68858;SDS011;55864;49.238;8.092;2022-07-06T09:20:09;9.32;;;2.25;;
68858;SDS011;55864;49.238;8.092;2022-07-06T09:22:24;5.50;;;2.00;;
68858;SDS011;55864;49.238;8.092;2022-07-06T09:24:28;13.35;;;2.50;;
68858;SDS011;55864;49.238;8.092;2022-07-06T09:26:30;8.65;;;2.17;;
68858;SDS011;55864;49.238;8.092;2022-07-06T09:28:41;8.15;;;2.13;;
68858;SDS011;55864;49.238;8.092;2022-07-06T09:30:41;8.23;;;2.05;;
68858;SDS011;55864;49.238;8.092;2022-07-06T09:32:43;6.45;;;2.00;;
68858;SDS011;55864;49.238;8.092;2022-07-06T09:34:45;9.15;;;1.95;;
68858;SDS011;55864;49.238;8.092;2022-07-06T09:36:46;6.40;;;1.98;;
68858;SDS011;55864;49.238;8.092;2022-07-06T09:38:48;5.82;;;1.90;;
68858;SDS011;55864;49.238;8.092;2022-07-06T09:40:48;5.40;;;1.90;;
68858;SDS011;55864;49.238;8.092;2022-07-06T09:42:50;9.32;;;2.30;;
68858;SDS011;55864;49.238;8.092;2022-07-06T09:44:50;6.47;;;2.15;;
68858;SDS011;55864;49.238;8.092;2022-07-06T09:46:51;6.75;;;2.08;;
68858;SDS011;55864;49.238;8.092;2022-07-06T09:48:53;6.88;;;2.10;;
68858;SDS011;55864;49.238;8.092;2022-07-06T09:50:54;10.68;;;2.35;;
68858;SDS011;55864;49.238;8.092;2022-07-06T09:52:55;8.80;;;2.40;;
68858;SDS011;55864;49.238;8.092;2022-07-06T09:54:56;8.55;;;2.20;;
68858;SDS011;55864;49.238;8.092;2022-07-06T09:56:56;8.65;;;2.20;;
68858;SDS011;55864;49.238;8.092;2022-07-06T09:58:59;6.82;;;2.30;;
68858;SDS011;55864;49.238;8.092;2022-07-06T10:00:59;11.20;;;2.30;;
68858;SDS011;55864;49.238;8.092;2022-07-06T10:03:00;14.10;;;2.50;;
68858;SDS011;55864;49.238;8.092;2022-07-06T10:05:00;7.03;;;2.40;;
68858;SDS011;55864;49.238;8.092;2022-07-06T10:07:01;6.68;;;2.15;;
68858;SDS011;55864;49.238;8.092;2022-07-06T10:09:04;5.95;;;2.33;;
68858;SDS011;55864;49.238;8.092;2022-07-06T10:11:06;6.18;;;1.98;;
68858;SDS011;55864;49.238;8.092;2022-07-06T10:13:07;6.10;;;2.25;;
68858;SDS011;55864;49.238;8.092;2022-07-06T10:15:13;8.20;;;2.10;;
68858;SDS011;55864;49.238;8.092;2022-07-06T10:33:26;5.22;;;1.80;;
68858;SDS011;55864;49.238;8.092;2022-07-06T10:35:31;4.93;;;1.73;;
68858;SDS011;55864;49.238;8.092;2022-07-06T10:37:34;6.13;;;2.20;;
68858;SDS011;55864;49.238;8.092;2022-07-06T10:39:35;5.28;;;1.90;;
68858;SDS011;55864;49.238;8.092;2022-07-06T10:41:47;6.30;;;1.90;;
68858;SDS011;55864;49.238;8.092;2022-07-06T10:43:50;5.20;;;1.63;;
68858;SDS011;55864;49.238;8.092;2022-07-06T10:45:51;4.43;;;1.65;;
68858;SDS011;55864;49.238;8.092;2022-07-06T10:48:17;5.00;;;1.75;;
68858;SDS011;55864;49.238;8.092;2022-07-06T10:50:19;7.45;;;1.95;;
68858;SDS011;55864;49.238;8.092;2022-07-06T10:52:20;8.45;;;2.20;;
68858;SDS011;55864;49.238;8.092;2022-07-06T10:54:20;6.85;;;2.10;;
68858;SDS011;55864;49.238;8.092;2022-07-06T10:56:32;5.07;;;1.90;;
68858;SDS011;55864;49.238;8.092;2022-07-06T10:59:08;8.45;;;2.03;;
68858;SDS011;55864;49.238;8.092;2022-07-06T11:01:14;12.55;;;2.40;;
68858;SDS011;55864;49.238;8.092;2022-07-06T11:03:35;19.75;;;2.60;;
68858;SDS011;55864;49.238;8.092;2022-07-06T11:06:06;17.02;;;2.38;;
68858;SDS011;55864;49.238;8.092;2022-07-06T11:08:23;6.00;;;1.83;;
68858;SDS011;55864;49.238;8.092;2022-07-06T11:10:47;5.57;;;2.15;;
68858;SDS011;55864;49.238;8.092;2022-07-06T11:13:02;6.47;;;1.73;;
68858;SDS011;55864;49.238;8.092;2022-07-06T11:15:03;4.55;;;1.70;;
68858;SDS011;55864;49.238;8.092;2022-07-06T11:17:04;6.18;;;1.80;;
68858;SDS011;55864;49.238;8.092;2022-07-06T11:19:05;6.43;;;2.10;;
68858;SDS011;55864;49.238;8.092;2022-07-06T11:23:22;5.57;;;1.80;;
68858;SDS011;55864;49.238;8.092;2022-07-06T11:25:24;11.00;;;2.20;;
68858;SDS011;55864;49.238;8.092;2022-07-06T11:27:25;9.63;;;2.00;;
68858;SDS011;55864;49.238;8.092;2022-07-06T11:29:26;11.25;;;2.10;;
68858;SDS011;55864;49.238;8.092;2022-07-06T11:31:28;6.22;;;1.90;;
68858;SDS011;55864;49.238;8.092;2022-07-06T11:33:28;5.18;;;1.90;;
68858;SDS011;55864;49.238;8.092;2022-07-06T11:35:29;7.22;;;1.90;;
68858;SDS011;55864;49.238;8.092;2022-07-06T11:37:32;8.30;;;2.03;;
68858;SDS011;55864;49.238;8.092;2022-07-06T11:39:32;8.40;;;2.10;;
68858;SDS011;55864;49.238;8.092;2022-07-06T11:41:34;6.85;;;1.90;;
68858;SDS011;55864;49.238;8.092;2022-07-06T11:43:35;5.07;;;1.60;;
68858;SDS011;55864;49.238;8.092;2022-07-06T11:45:36;4.45;;;1.85;;
68858;SDS011;55864;49.238;8.092;2022-07-06T11:47:36;4.28;;;1.70;;
68858;SDS011;55864;49.238;8.092;2022-07-06T11:49:38;7.85;;;2.03;;
68858;SDS011;55864;49.238;8.092;2022-07-06T11:51:40;7.97;;;1.77;;
68858;SDS011;55864;49.238;8.092;2022-07-06T11:53:44;12.57;;;2.17;;
68858;SDS011;55864;49.238;8.092;2022-07-06T11:55:45;7.15;;;1.58;;
68858;SDS011;55864;49.238;8.092;2022-07-06T11:57:45;6.90;;;1.90;;
68858;SDS011;55864;49.238;8.092;2022-07-06T11:59:46;4.28;;;1.83;;
68858;SDS011;55864;49.238;8.092;2022-07-06T12:01:47;5.70;;;1.55;;
68858;SDS011;55864;49.238;8.092;2022-07-06T12:03:47;4.53;;;1.65;;
68858;SDS011;55864;49.238;8.092;2022-07-06T12:05:48;5.85;;;1.67;;
68858;SDS011;55864;49.238;8.092;2022-07-06T12:07:51;5.28;;;1.75;;
68858;SDS011;55864;49.238;8.092;2022-07-06T12:10:06;5.43;;;1.83;;
68858;SDS011;55864;49.238;8.092;2022-07-06T12:12:07;4.05;;;1.63;;
68858;SDS011;55864;49.238;8.092;2022-07-06T12:14:13;6.07;;;1.90;;
68858;SDS011;55864;49.238;8.092;2022-07-06T12:16:14;4.05;;;1.60;;
68858;SDS011;55864;49.238;8.092;2022-07-06T12:18:16;6.32;;;1.60;;
68858;SDS011;55864;49.238;8.092;2022-07-06T12:20:17;4.88;;;1.65;;
68858;SDS011;55864;49.238;8.092;2022-07-06T12:22:23;13.38;;;2.13;;
68858;SDS011;55864;49.238;8.092;2022-07-06T12:24:25;8.82;;;1.50;;
68858;SDS011;55864;49.238;8.092;2022-07-06T12:26:28;3.53;;;1.50;;
68858;SDS011;55864;49.238;8.092;2022-07-06T12:28:38;4.15;;;1.58;;
68858;SDS011;55864;49.238;8.092;2022-07-06T12:30:39;5.88;;;1.63;;
68858;SDS011;55864;49.238;8.092;2022-07-06T12:32:45;4.03;;;1.38;;
68858;SDS011;55864;49.238;8.092;2022-07-06T12:34:46;4.10;;;1.50;;
68858;SDS011;55864;49.238;8.092;2022-07-06T12:36:47;4.55;;;1.55;;
68858;SDS011;55864;49.238;8.092;2022-07-06T12:38:49;3.95;;;1.50;;
68858;SDS011;55864;49.238;8.092;2022-07-06T12:40:49;4.32;;;1.60;;